Indianapolis International Airport Indianapolis US
ICAO: KIND
IATA: IND
Category: Large
Scheduled Services: Yes

Elevation: 797 ft
TransAlt. 18000 ft.

Airport Communications:
APP:119.3
ATIS:134.25
CLNC DEL:128.75
DEP:119.05
GND:121.8
TERRE HAUTE RDO:122.55
INDY TWR:120.9
UNICOM:122.95

KIND Zoom In..

Runways:

(A) RW 05L length 11200 ft width 150 ft
ILS 111.75 / hdg 47

(B) RW 05R length 10000 ft width 150 ft
ILS 111.15 / hdg 47

(C) RW 14 length 7280 ft width 150 ft
ILS 110.50 / hdg 137

(D) RW 23L length 10000 ft width 150 ft
ILS 111.15 / hdg 227

(E) RW 23R length 11200 ft width 150 ft
ILS 111.75 / hdg 227

(F) RW 32 length 7280 ft width 150 ft
ILS 110.50 / hdg 317

Location; KIND
Day. 03 / Time. 08.54 Zulu
* Altimeter: 30.26
* Temperature: -03° c. -26.6°f.
* Wind from: 240° Speed 04 kn.
Dewpoint: -07° c.
Visibility: 10 Statute Miles.
Clouds: Scattered 25000 ft.

KIND 030854Z 24004KT 10SM SCT250 M03/M07 A3026 RMK AO2 SLP252 T10281067 58014

Going to: --> -->


Wind From 240°
Speed 04 kn.

 
 
jpsmedia worldairports.se 2020   terms of use